Aeroporto :
LOGIN :

Iscrizione | Disclaimer

   EN    FR    IT 

 










Sommario :    VFR   VFR Marginale   IFR   IFR Intensivo   IFR Molto Intensivo
Visibilità : 
Base nubi : 
>= 8 km
>= 3000ft
5 / 8 km
1000 / 3000 ft
1500m / 5 km
500 / 1000 ft
800 / 1500m
200 / 500 ft
< 800m
< 200 ft
Simboli :   Temporali  Nebbia  Neve Forte  Precipitazioni Forti  Vento > 20 kt
SIGMETs :   Varie  Temporali  Ghiacco  Turbolenza  Onda orograficha  Ceneri Vulcaniche






- Altitudine del aeroporto : 459 ft
- Codice IATA : CER


LFRC - Cherbourg / Maupertus

ULTIMO METAR :
  • 140830Z AUTO 20007KT CAVOK 04/03 Q0993 TEMPO 4000 SHRAGS BKN020CB

METARs OBSOLETI :
  • 140800Z AUTO 19010KT CAVOK 04/03 Q0992 TEMPO 18015G25KT 4000 SHRAGS BKN020CB
  • 140730Z AUTO 20010KT 9999 ///TCU 03/03 Q0992 TEMPO 18015G25KT 4000 SHRAGS BKN020CB
  • 140700Z AUTO 18008KT 9999 ///TCU 03/03 Q0992 TEMPO 18015G25KT 3000 TSRAGS BKN020CB
  • 140630Z AUTO 18010KT 150V210 9999 FEW029/// SCT070/// OVC100/// ///CB 04/03 Q0991 TEMPO 18015G25KT 3000 TSRAGS
  • 140600Z AUTO 17011KT 9999 -RA FEW023/// SCT028/// BKN034/// ///TCU 04/03 Q0991 TEMPO 18015G25KT 3000 TSRAGS BKN020CB

TAF TAF LFRC
Valido dal 14 a 09 ore il 14 a 18 ore UTC


140800Z 1409/1418 18005KT 9999 BKN030
TEMPO 1409/1418 4000 SHRAGS BKN020CB



MetMap, La meteo Aeronautica in un colpo d'occhio ! - Copyright ORBIFLY Dicembre 2007 - Disclaimer

ORBIFLY MET'MAP TEAM :

Programmazione e sviluppo : Alexandra Zaïnal
Concezione e sviluppo : Baudouin d'Aumeries
Co-Programmazione e sviluppo : Marc-Olivier Méhu
Supporto tecnico e logistico : Manuel Goepfert
Aiuto per la traduzione : Arnaldo La Scala

Contatto : metmap@orbifly.com




FONTI E CREDITI :

   NOAA